Detailed Flight Report of Nuri Burak ERKAL ;
Number CXD079 
Departure Aerodrome LTFE 
Arrival Aerodrome UBBB

Map generated by the Great Circle Mapper - copyright © Karl L. Swartz.

Pilot In Command CXD079 : Nuri Burak Erkal
Aircraft B773 / TC-NZL
Date Of Flight 2020-08-04
Departure Time 14:32 UTC
Arrival Time 16:56 UTC
Block Time 02:24
Distance 1,098 Nm.
Used Fuel 32,767 Lbs.
   
Detailed Flight Log [2020/08/04 14:41:00]
Flight IATA:C001
Pilot Number:079
Company ICAO:CXD
Aircraft Type:B773
Aircraft Registration:TC-NZL
Departing Airport: LTFE
Destination Airport: UBBB
Alternate Airport:UBBQ
Online: VATSIM
Route:AKBUK UT241 DEN UR32 HAY UW705 GEM UA285 SIV UA4 ERZ UB374 INDUR N449 GOTUB T447 INSAN
Flight Level:FL370
No pause
14:41 Zero fuel Weight: 503142 Lbs, Fuel Weight: 65240 Lbs
14:41 VATSIM:LTFE 031920Z VRB03KT CAVOK 27/17 Q1006 NOSIG
14:41 VATSIM:UBBB 031930Z 35014KT CAVOK 23/18 Q1012 R88/CLRD// NOSIG
14:43 Parking Brakes off
14:54 VR= 195 Knots
14:54 V2= 199 Knots
14:54 Take-off
14:54 Take off Weight: 566885 Lbs
14:54 Wind: 313º @ 003 Knots Heading: 286º
14:54 POS N37º 15´ 15´´ E027º 39´ 08´´
14:54 N11 95 N12 95
14:54 Flaps:5º at 201 Knots
14:54 Gear Up: 202 Knots
14:54 Flaps:1º at 214 Knots
14:55 Flaps:Up at 232 Knots
15:09 Wind:270º@027 Knots Headi
ng: 058º Ground Speed: 516 Knots Altitude 31709 ft
15:13 TOC
15:13 Fuel Weight: 53260 Lb
15:24 Wind:259º@037 Knots Heading: 077º Ground Speed: 525 Knots Altitude 37109 ft
15:39 Wind:260º@037 Knots Heading: 079º Ground Speed: 525 Knots Altitude 37001 ft
15:54 Wind:256º@049 Knots Heading: 079º Ground Speed: 536 Knots Altitude 37103 ft
16:09 Wind:261º@060 Knots Heading: 090º Ground Speed: 547 Knots Altitude 37007 ft
16:24 Wind:269º@071 Knots Heading: 085º Ground Speed: 558 Knots Altitude 37083 ft
16:39 Wind:269º@076 Knots Heading: 087º Ground Speed: 565 Knots Altitude 36952 ft
16:40 TOD
16:40 Fuel Weight: 30747 Lb
16:54 Wind:277º@024 Knots Heading: 088º Ground Speed: 407 Knots Altitude 16266 ft
17:04 Gear Down: 247 Knots
17:05 Flaps:1º at 173 Knots
17:05 Flaps:5º at 167 Knots
17:05 Flaps:15º at 157 Knots
17:05 Flaps:30º at 152 Knots
17:05 Flaps:35º at 151 Knots
1
7:06 Flaps:Full at 150 Knots
17:06 TouchDown:Rate -386 ft/min Speed: 131 Knots
17:07 VATSIM:UBBB 032130Z 36012KT CAVOK 24/17 Q1012 R88/CLRD// NOSIG=
17:07 Land
17:07 Wind:000º@012 Knots
17:07 Heading: 348º
17:07 Flight Duration: 02:13
17:07 Landing Weight: 530709 Lbs
17:07 POS N40º 28´ 05´´ E050º 02´ 15´´
17:07 Parking brakes on
17:07 Block to Block Duration: 02:24
17:07 Final Fuel: 27566 Lbls
17:07 Spent Fuel: 37674 Lbls
17:07 Flight Length: 1098 NM
17:07 TOD Land Length: 175 NM

Text Link of Flight Log http://www.candanair.net/acars/logs/CXD07920200804144100.txt
   

[ Back ]